sensor_id;sensor_type;location;lat;lon;timestamp;P1;durP1;ratioP1;P2;durP2;ratioP2
75429;SDS011;64127;51.488;5.462;2022-10-31T00:01:24;12.93;;;9.60;;
75429;SDS011;64127;51.488;5.462;2022-10-31T00:04:00;10.70;;;9.40;;
75429;SDS011;64127;51.488;5.462;2022-10-31T00:06:36;12.63;;;9.30;;
75429;SDS011;64127;51.488;5.462;2022-10-31T00:09:09;11.13;;;9.40;;
75429;SDS011;64127;51.488;5.462;2022-10-31T00:11:41;13.60;;;9.73;;
75429;SDS011;64127;51.488;5.462;2022-10-31T00:14:13;12.17;;;10.07;;
75429;SDS011;64127;51.488;5.462;2022-10-31T00:16:45;11.03;;;9.50;;
75429;SDS011;64127;51.488;5.462;2022-10-31T00:19:17;14.87;;;10.03;;
75429;SDS011;64127;51.488;5.462;2022-10-31T00:21:51;11.30;;;8.77;;
75429;SDS011;64127;51.488;5.462;2022-10-31T00:24:23;10.10;;;9.00;;
75429;SDS011;64127;51.488;5.462;2022-10-31T00:26:55;12.73;;;9.23;;
75429;SDS011;64127;51.488;5.462;2022-10-31T00:29:27;10.57;;;9.20;;
75429;SDS011;64127;51.488;5.462;2022-10-31T00:31:59;13.03;;;9.10;;
75429;SDS011;64127;51.488;5.462;2022-10-31T00:34:33;13.33;;;9.77;;
75429;SDS011;64127;51.488;5.462;2022-10-31T00:37:05;12.37;;;8.97;;
75429;SDS011;64127;51.488;5.462;2022-10-31T00:39:37;15.40;;;9.43;;
75429;SDS011;64127;51.488;5.462;2022-10-31T00:42:09;16.30;;;9.13;;
75429;SDS011;64127;51.488;5.462;2022-10-31T00:44:41;11.43;;;9.07;;
75429;SDS011;64127;51.488;5.462;2022-10-31T00:47:13;11.30;;;8.87;;
75429;SDS011;64127;51.488;5.462;2022-10-31T00:49:45;12.97;;;8.67;;
75429;SDS011;64127;51.488;5.462;2022-10-31T00:52:16;13.90;;;9.20;;
75429;SDS011;64127;51.488;5.462;2022-10-31T00:54:48;11.50;;;9.10;;
75429;SDS011;64127;51.488;5.462;2022-10-31T00:57:20;12.03;;;9.40;;
75429;SDS011;64127;51.488;5.462;2022-10-31T00:59:52;12.90;;;8.90;;
75429;SDS011;64127;51.488;5.462;2022-10-31T01:02:26;11.90;;;8.83;;
75429;SDS011;64127;51.488;5.462;2022-10-31T01:04:58;12.30;;;9.53;;
75429;SDS011;64127;51.488;5.462;2022-10-31T01:07:30;14.47;;;9.00;;
75429;SDS011;64127;51.488;5.462;2022-10-31T01:10:02;12.07;;;9.57;;
75429;SDS011;64127;51.488;5.462;2022-10-31T01:12:40;9.53;;;8.23;;
75429;SDS011;64127;51.488;5.462;2022-10-31T01:15:19;10.63;;;8.77;;
75429;SDS011;64127;51.488;5.462;2022-10-31T01:17:53;14.83;;;8.93;;
75429;SDS011;64127;51.488;5.462;2022-10-31T01:20:25;11.50;;;8.93;;
75429;SDS011;64127;51.488;5.462;2022-10-31T01:22:57;10.97;;;8.70;;
75429;SDS011;64127;51.488;5.462;2022-10-31T01:25:29;14.83;;;9.93;;
75429;SDS011;64127;51.488;5.462;2022-10-31T01:28:01;11.53;;;9.13;;
75429;SDS011;64127;51.488;5.462;2022-10-31T01:30:33;13.20;;;9.07;;
75429;SDS011;64127;51.488;5.462;2022-10-31T01:33:06;12.80;;;8.93;;
75429;SDS011;64127;51.488;5.462;2022-10-31T01:35:38;12.63;;;9.17;;
75429;SDS011;64127;51.488;5.462;2022-10-31T01:38:10;12.73;;;8.97;;
75429;SDS011;64127;51.488;5.462;2022-10-31T01:40:41;13.67;;;8.83;;
75429;SDS011;64127;51.488;5.462;2022-10-31T01:43:14;11.33;;;8.77;;
75429;SDS011;64127;51.488;5.462;2022-10-31T01:45:50;11.73;;;9.23;;
75429;SDS011;64127;51.488;5.462;2022-10-31T01:48:25;12.70;;;8.60;;
75429;SDS011;64127;51.488;5.462;2022-10-31T01:50:59;10.20;;;8.77;;
75429;SDS011;64127;51.488;5.462;2022-10-31T01:53:33;15.80;;;9.40;;
75429;SDS011;64127;51.488;5.462;2022-10-31T01:56:07;10.10;;;8.67;;
75429;SDS011;64127;51.488;5.462;2022-10-31T01:58:40;9.33;;;8.37;;
75429;SDS011;64127;51.488;5.462;2022-10-31T02:01:14;10.50;;;8.57;;
75429;SDS011;64127;51.488;5.462;2022-10-31T02:03:47;10.53;;;8.37;;
75429;SDS011;64127;51.488;5.462;2022-10-31T02:06:29;13.97;;;9.00;;
75429;SDS011;64127;51.488;5.462;2022-10-31T02:09:18;9.87;;;8.87;;
75429;SDS011;64127;51.488;5.462;2022-10-31T02:11:55;9.67;;;8.67;;
75429;SDS011;64127;51.488;5.462;2022-10-31T02:14:30;9.70;;;8.20;;
75429;SDS011;64127;51.488;5.462;2022-10-31T02:17:03;11.07;;;8.40;;
75429;SDS011;64127;51.488;5.462;2022-10-31T02:19:39;8.80;;;7.97;;
75429;SDS011;64127;51.488;5.462;2022-10-31T02:22:52;12.03;;;8.27;;
75429;SDS011;64127;51.488;5.462;2022-10-31T02:32:08;9.67;;;8.03;;
75429;SDS011;64127;51.488;5.462;2022-10-31T02:37:41;11.03;;;8.10;;
75429;SDS011;64127;51.488;5.462;2022-10-31T02:40:30;11.57;;;8.57;;
75429;SDS011;64127;51.488;5.462;2022-10-31T02:43:20;10.57;;;8.10;;
75429;SDS011;64127;51.488;5.462;2022-10-31T02:46:08;10.00;;;7.70;;
75429;SDS011;64127;51.488;5.462;2022-10-31T02:48:52;8.93;;;8.03;;
75429;SDS011;64127;51.488;5.462;2022-10-31T02:51:30;8.83;;;7.90;;
75429;SDS011;64127;51.488;5.462;2022-10-31T02:54:02;11.87;;;7.73;;
75429;SDS011;64127;51.488;5.462;2022-10-31T02:56:34;11.67;;;8.57;;
75429;SDS011;64127;51.488;5.462;2022-10-31T02:59:06;10.43;;;8.67;;
75429;SDS011;64127;51.488;5.462;2022-10-31T03:05:20;10.00;;;8.47;;
75429;SDS011;64127;51.488;5.462;2022-10-31T03:10:53;9.13;;;8.23;;
75429;SDS011;64127;51.488;5.462;2022-10-31T03:13:49;13.13;;;8.47;;
75429;SDS011;64127;51.488;5.462;2022-10-31T03:16:51;11.67;;;7.77;;
75429;SDS011;64127;51.488;5.462;2022-10-31T03:19:29;13.03;;;8.73;;
75429;SDS011;64127;51.488;5.462;2022-10-31T03:22:15;9.00;;;8.07;;
75429;SDS011;64127;51.488;5.462;2022-10-31T03:24:52;11.33;;;8.63;;
75429;SDS011;64127;51.488;5.462;2022-10-31T03:27:27;14.63;;;8.20;;
75429;SDS011;64127;51.488;5.462;2022-10-31T03:30:05;13.33;;;8.40;;
75429;SDS011;64127;51.488;5.462;2022-10-31T03:32:43;8.33;;;7.50;;
75429;SDS011;64127;51.488;5.462;2022-10-31T03:35:20;8.43;;;7.63;;
75429;SDS011;64127;51.488;5.462;2022-10-31T03:37:57;8.23;;;7.43;;
75429;SDS011;64127;51.488;5.462;2022-10-31T03:40:37;11.30;;;8.23;;
75429;SDS011;64127;51.488;5.462;2022-10-31T03:43:15;9.00;;;7.87;;
75429;SDS011;64127;51.488;5.462;2022-10-31T03:45:55;8.93;;;8.00;;
75429;SDS011;64127;51.488;5.462;2022-10-31T03:48:28;11.73;;;8.60;;
75429;SDS011;64127;51.488;5.462;2022-10-31T03:53:53;9.60;;;8.20;;
75429;SDS011;64127;51.488;5.462;2022-10-31T03:56:36;8.43;;;7.63;;
75429;SDS011;64127;51.488;5.462;2022-10-31T03:59:23;8.87;;;7.97;;
75429;SDS011;64127;51.488;5.462;2022-10-31T04:02:06;9.97;;;8.70;;
75429;SDS011;64127;51.488;5.462;2022-10-31T04:04:46;10.33;;;8.20;;
75429;SDS011;64127;51.488;5.462;2022-10-31T04:07:20;12.77;;;8.87;;
75429;SDS011;64127;51.488;5.462;2022-10-31T04:09:56;11.57;;;8.47;;
75429;SDS011;64127;51.488;5.462;2022-10-31T04:12:32;12.13;;;9.03;;
75429;SDS011;64127;51.488;5.462;2022-10-31T04:15:08;12.97;;;9.27;;
75429;SDS011;64127;51.488;5.462;2022-10-31T04:17:41;10.27;;;9.13;;
75429;SDS011;64127;51.488;5.462;2022-10-31T04:20:18;13.73;;;9.33;;
75429;SDS011;64127;51.488;5.462;2022-10-31T04:23:04;10.83;;;9.30;;
75429;SDS011;64127;51.488;5.462;2022-10-31T04:25:52;10.47;;;9.20;;
75429;SDS011;64127;51.488;5.462;2022-10-31T04:28:24;11.57;;;9.53;;
75429;SDS011;64127;51.488;5.462;2022-10-31T04:30:56;11.73;;;10.43;;
75429;SDS011;64127;51.488;5.462;2022-10-31T04:33:28;12.03;;;9.53;;
75429;SDS011;64127;51.488;5.462;2022-10-31T04:36:00;12.97;;;11.03;;
75429;SDS011;64127;51.488;5.462;2022-10-31T04:38:34;11.60;;;10.40;;
75429;SDS011;64127;51.488;5.462;2022-10-31T04:41:06;14.63;;;10.33;;
75429;SDS011;64127;51.488;5.462;2022-10-31T04:43:38;13.03;;;10.27;;
75429;SDS011;64127;51.488;5.462;2022-10-31T04:46:10;13.23;;;10.13;;
75429;SDS011;64127;51.488;5.462;2022-10-31T04:48:42;12.20;;;9.50;;
75429;SDS011;64127;51.488;5.462;2022-10-31T04:51:14;13.80;;;10.23;;
75429;SDS011;64127;51.488;5.462;2022-10-31T04:53:46;12.63;;;10.93;;
75429;SDS011;64127;51.488;5.462;2022-10-31T04:56:18;14.43;;;10.80;;
75429;SDS011;64127;51.488;5.462;2022-10-31T04:58:51;12.80;;;10.50;;
75429;SDS011;64127;51.488;5.462;2022-10-31T05:01:23;13.30;;;10.60;;
75429;SDS011;64127;51.488;5.462;2022-10-31T05:03:55;13.77;;;10.60;;
75429;SDS011;64127;51.488;5.462;2022-10-31T05:06:27;14.77;;;11.57;;
75429;SDS011;64127;51.488;5.462;2022-10-31T05:08:59;13.33;;;11.23;;
75429;SDS011;64127;51.488;5.462;2022-10-31T05:11:31;13.47;;;10.90;;
75429;SDS011;64127;51.488;5.462;2022-10-31T05:14:03;13.00;;;10.73;;
75429;SDS011;64127;51.488;5.462;2022-10-31T05:16:35;13.30;;;10.70;;
75429;SDS011;64127;51.488;5.462;2022-10-31T05:19:07;14.57;;;10.73;;
75429;SDS011;64127;51.488;5.462;2022-10-31T05:21:39;12.70;;;10.90;;
75429;SDS011;64127;51.488;5.462;2022-10-31T05:24:10;14.53;;;10.43;;
75429;SDS011;64127;51.488;5.462;2022-10-31T05:26:42;10.93;;;9.83;;
75429;SDS011;64127;51.488;5.462;2022-10-31T05:29:14;13.77;;;11.07;;
75429;SDS011;64127;51.488;5.462;2022-10-31T05:31:46;14.53;;;10.73;;
75429;SDS011;64127;51.488;5.462;2022-10-31T05:34:18;12.40;;;10.83;;
75429;SDS011;64127;51.488;5.462;2022-10-31T05:36:51;15.27;;;10.93;;
75429;SDS011;64127;51.488;5.462;2022-10-31T05:39:22;12.60;;;10.17;;
75429;SDS011;64127;51.488;5.462;2022-10-31T05:41:54;11.83;;;10.40;;
75429;SDS011;64127;51.488;5.462;2022-10-31T05:44:26;16.40;;;10.30;;
75429;SDS011;64127;51.488;5.462;2022-10-31T05:46:58;14.63;;;10.77;;
75429;SDS011;64127;51.488;5.462;2022-10-31T05:49:30;11.47;;;10.27;;
75429;SDS011;64127;51.488;5.462;2022-10-31T05:52:03;12.97;;;10.77;;
75429;SDS011;64127;51.488;5.462;2022-10-31T05:54:35;11.67;;;10.30;;
75429;SDS011;64127;51.488;5.462;2022-10-31T05:57:07;14.13;;;10.43;;
75429;SDS011;64127;51.488;5.462;2022-10-31T05:59:39;13.83;;;10.33;;
75429;SDS011;64127;51.488;5.462;2022-10-31T06:02:11;11.83;;;10.70;;
75429;SDS011;64127;51.488;5.462;2022-10-31T06:04:43;14.20;;;11.00;;
75429;SDS011;64127;51.488;5.462;2022-10-31T06:07:15;12.07;;;10.53;;
75429;SDS011;64127;51.488;5.462;2022-10-31T06:09:47;12.50;;;10.93;;
75429;SDS011;64127;51.488;5.462;2022-10-31T06:12:19;13.70;;;10.73;;
75429;SDS011;64127;51.488;5.462;2022-10-31T06:14:51;13.83;;;11.20;;
75429;SDS011;64127;51.488;5.462;2022-10-31T06:17:23;12.30;;;10.70;;
75429;SDS011;64127;51.488;5.462;2022-10-31T06:19:55;12.60;;;10.83;;
75429;SDS011;64127;51.488;5.462;2022-10-31T06:22:27;16.90;;;11.43;;
75429;SDS011;64127;51.488;5.462;2022-10-31T06:24:59;16.08;;;13.23;;
75429;SDS011;64127;51.488;5.462;2022-10-31T06:27:31;15.63;;;12.07;;
75429;SDS011;64127;51.488;5.462;2022-10-31T06:30:04;14.37;;;12.00;;
75429;SDS011;64127;51.488;5.462;2022-10-31T06:32:36;15.23;;;11.63;;
75429;SDS011;64127;51.488;5.462;2022-10-31T06:35:09;12.77;;;11.47;;
75429;SDS011;64127;51.488;5.462;2022-10-31T06:37:41;17.27;;;12.03;;
75429;SDS011;64127;51.488;5.462;2022-10-31T06:40:18;15.20;;;11.37;;
75429;SDS011;64127;51.488;5.462;2022-10-31T06:42:59;15.90;;;11.53;;
75429;SDS011;64127;51.488;5.462;2022-10-31T06:45:35;15.80;;;12.17;;
75429;SDS011;64127;51.488;5.462;2022-10-31T06:48:07;14.10;;;11.53;;
75429;SDS011;64127;51.488;5.462;2022-10-31T06:50:47;17.90;;;12.57;;
75429;SDS011;64127;51.488;5.462;2022-10-31T06:53:19;13.60;;;12.10;;
75429;SDS011;64127;51.488;5.462;2022-10-31T06:55:51;16.63;;;12.47;;
75429;SDS011;64127;51.488;5.462;2022-10-31T06:58:23;14.40;;;12.20;;
75429;SDS011;64127;51.488;5.462;2022-10-31T07:00:58;15.20;;;11.80;;
75429;SDS011;64127;51.488;5.462;2022-10-31T07:03:31;12.97;;;11.67;;
75429;SDS011;64127;51.488;5.462;2022-10-31T07:06:04;13.37;;;11.70;;
75429;SDS011;64127;51.488;5.462;2022-10-31T07:08:36;13.47;;;11.97;;
75429;SDS011;64127;51.488;5.462;2022-10-31T07:11:08;17.63;;;13.17;;
75429;SDS011;64127;51.488;5.462;2022-10-31T07:13:40;16.60;;;13.53;;
75429;SDS011;64127;51.488;5.462;2022-10-31T07:16:12;20.70;;;13.67;;
75429;SDS011;64127;51.488;5.462;2022-10-31T07:18:45;18.63;;;14.03;;
75429;SDS011;64127;51.488;5.462;2022-10-31T07:21:17;15.37;;;13.13;;
75429;SDS011;64127;51.488;5.462;2022-10-31T07:23:49;20.37;;;13.53;;
75429;SDS011;64127;51.488;5.462;2022-10-31T07:26:21;16.47;;;13.00;;
75429;SDS011;64127;51.488;5.462;2022-10-31T07:28:53;18.17;;;13.73;;
75429;SDS011;64127;51.488;5.462;2022-10-31T07:31:25;17.53;;;13.93;;
75429;SDS011;64127;51.488;5.462;2022-10-31T07:33:57;15.57;;;14.03;;
75429;SDS011;64127;51.488;5.462;2022-10-31T07:36:29;18.83;;;14.40;;
75429;SDS011;64127;51.488;5.462;2022-10-31T07:39:04;16.87;;;13.93;;
75429;SDS011;64127;51.488;5.462;2022-10-31T07:41:36;18.10;;;13.97;;
75429;SDS011;64127;51.488;5.462;2022-10-31T07:44:08;15.43;;;13.80;;
75429;SDS011;64127;51.488;5.462;2022-10-31T07:46:40;15.33;;;13.57;;
75429;SDS011;64127;51.488;5.462;2022-10-31T07:49:12;18.33;;;14.17;;
75429;SDS011;64127;51.488;5.462;2022-10-31T07:51:44;31.53;;;18.07;;
75429;SDS011;64127;51.488;5.462;2022-10-31T07:54:16;18.70;;;14.47;;
75429;SDS011;64127;51.488;5.462;2022-10-31T07:56:48;24.83;;;15.57;;
75429;SDS011;64127;51.488;5.462;2022-10-31T07:59:20;17.70;;;15.40;;
75429;SDS011;64127;51.488;5.462;2022-10-31T08:01:52;20.83;;;15.60;;
75429;SDS011;64127;51.488;5.462;2022-10-31T08:04:24;17.77;;;15.30;;
75429;SDS011;64127;51.488;5.462;2022-10-31T08:06:57;21.60;;;16.73;;
75429;SDS011;64127;51.488;5.462;2022-10-31T08:09:29;19.53;;;17.43;;
75429;SDS011;64127;51.488;5.462;2022-10-31T08:12:04;19.27;;;16.93;;
75429;SDS011;64127;51.488;5.462;2022-10-31T08:14:36;19.23;;;16.93;;
75429;SDS011;64127;51.488;5.462;2022-10-31T08:17:08;21.23;;;16.87;;
75429;SDS011;64127;51.488;5.462;2022-10-31T08:19:41;20.43;;;16.47;;
75429;SDS011;64127;51.488;5.462;2022-10-31T08:22:13;18.23;;;16.33;;
75429;SDS011;64127;51.488;5.462;2022-10-31T08:24:45;19.90;;;17.13;;
75429;SDS011;64127;51.488;5.462;2022-10-31T08:27:17;20.53;;;16.83;;
75429;SDS011;64127;51.488;5.462;2022-10-31T08:29:49;19.10;;;16.83;;
75429;SDS011;64127;51.488;5.462;2022-10-31T08:32:21;19.83;;;16.93;;
75429;SDS011;64127;51.488;5.462;2022-10-31T08:34:53;18.97;;;16.90;;
75429;SDS011;64127;51.488;5.462;2022-10-31T08:37:25;21.40;;;18.03;;
75429;SDS011;64127;51.488;5.462;2022-10-31T08:39:57;20.77;;;17.73;;
75429;SDS011;64127;51.488;5.462;2022-10-31T08:42:29;23.13;;;18.33;;
75429;SDS011;64127;51.488;5.462;2022-10-31T08:45:04;20.87;;;18.83;;
75429;SDS011;64127;51.488;5.462;2022-10-31T08:47:36;22.87;;;18.73;;
75429;SDS011;64127;51.488;5.462;2022-10-31T08:50:08;22.57;;;19.93;;
75429;SDS011;64127;51.488;5.462;2022-10-31T08:52:40;21.87;;;19.53;;
75429;SDS011;64127;51.488;5.462;2022-10-31T08:55:35;24.13;;;19.83;;
75429;SDS011;64127;51.488;5.462;2022-10-31T08:58:10;22.50;;;20.10;;
75429;SDS011;64127;51.488;5.462;2022-10-31T09:00:49;24.00;;;19.37;;
75429;SDS011;64127;51.488;5.462;2022-10-31T09:03:25;23.37;;;19.77;;
75429;SDS011;64127;51.488;5.462;2022-10-31T09:06:02;22.97;;;20.67;;
75429;SDS011;64127;51.488;5.462;2022-10-31T09:08:37;22.03;;;19.27;;
75429;SDS011;64127;51.488;5.462;2022-10-31T09:11:09;23.90;;;21.10;;
75429;SDS011;64127;51.488;5.462;2022-10-31T09:13:41;22.30;;;19.43;;
75429;SDS011;64127;51.488;5.462;2022-10-31T09:16:13;23.37;;;20.83;;
75429;SDS011;64127;51.488;5.462;2022-10-31T09:18:45;22.43;;;20.10;;
75429;SDS011;64127;51.488;5.462;2022-10-31T09:21:17;22.67;;;19.63;;
75429;SDS011;64127;51.488;5.462;2022-10-31T09:23:49;21.87;;;19.67;;
75429;SDS011;64127;51.488;5.462;2022-10-31T09:26:20;25.37;;;21.43;;
75429;SDS011;64127;51.488;5.462;2022-10-31T09:28:53;25.90;;;21.43;;
75429;SDS011;64127;51.488;5.462;2022-10-31T09:31:25;23.90;;;21.33;;
75429;SDS011;64127;51.488;5.462;2022-10-31T09:33:57;27.50;;;22.47;;
75429;SDS011;64127;51.488;5.462;2022-10-31T09:36:29;26.70;;;22.57;;
75429;SDS011;64127;51.488;5.462;2022-10-31T09:39:01;29.00;;;22.60;;
75429;SDS011;64127;51.488;5.462;2022-10-31T09:45:07;28.77;;;23.10;;
75429;SDS011;64127;51.488;5.462;2022-10-31T09:51:24;32.10;;;23.30;;
75429;SDS011;64127;51.488;5.462;2022-10-31T09:54:21;27.57;;;22.43;;
75429;SDS011;64127;51.488;5.462;2022-10-31T09:57:15;27.10;;;22.67;;
75429;SDS011;64127;51.488;5.462;2022-10-31T09:59:54;28.03;;;23.57;;
75429;SDS011;64127;51.488;5.462;2022-10-31T10:02:34;30.43;;;23.43;;
75429;SDS011;64127;51.488;5.462;2022-10-31T10:05:41;31.80;;;24.57;;
75429;SDS011;64127;51.488;5.462;2022-10-31T10:08:55;25.83;;;22.63;;
75429;SDS011;64127;51.488;5.462;2022-10-31T10:11:31;27.57;;;23.40;;
75429;SDS011;64127;51.488;5.462;2022-10-31T10:14:34;27.93;;;22.97;;
75429;SDS011;64127;51.488;5.462;2022-10-31T10:20:43;29.30;;;23.17;;
75429;SDS011;64127;51.488;5.462;2022-10-31T10:26:56;29.70;;;23.50;;
75429;SDS011;64127;51.488;5.462;2022-10-31T10:30:02;30.10;;;25.70;;
75429;SDS011;64127;51.488;5.462;2022-10-31T10:32:52;34.33;;;25.77;;
75429;SDS011;64127;51.488;5.462;2022-10-31T10:38:17;34.93;;;26.40;;
75429;SDS011;64127;51.488;5.462;2022-10-31T10:40:57;34.57;;;27.00;;
75429;SDS011;64127;51.488;5.462;2022-10-31T10:43:36;38.23;;;27.80;;
75429;SDS011;64127;51.488;5.462;2022-10-31T10:49:58;40.10;;;28.70;;
75429;SDS011;64127;51.488;5.462;2022-10-31T10:55:31;36.57;;;27.33;;
75429;SDS011;64127;51.488;5.462;2022-10-31T10:58:14;34.23;;;26.80;;
75429;SDS011;64127;51.488;5.462;2022-10-31T11:00:47;33.70;;;27.10;;
75429;SDS011;64127;51.488;5.462;2022-10-31T11:03:21;35.43;;;27.17;;
75429;SDS011;64127;51.488;5.462;2022-10-31T11:08:33;33.23;;;26.87;;
75429;SDS011;64127;51.488;5.462;2022-10-31T11:11:17;35.30;;;27.03;;
75429;SDS011;64127;51.488;5.462;2022-10-31T11:13:59;33.10;;;25.93;;
75429;SDS011;64127;51.488;5.462;2022-10-31T11:16:37;34.63;;;26.37;;
75429;SDS011;64127;51.488;5.462;2022-10-31T11:19:20;29.87;;;25.63;;
75429;SDS011;64127;51.488;5.462;2022-10-31T11:22:05;33.17;;;25.43;;
75429;SDS011;64127;51.488;5.462;2022-10-31T11:24:44;31.90;;;25.60;;
75429;SDS011;64127;51.488;5.462;2022-10-31T11:27:22;30.63;;;25.37;;
75429;SDS011;64127;51.488;5.462;2022-10-31T11:30:06;30.03;;;24.17;;
75429;SDS011;64127;51.488;5.462;2022-10-31T11:32:49;31.80;;;24.73;;
75429;SDS011;64127;51.488;5.462;2022-10-31T11:35:23;30.07;;;24.20;;
75429;SDS011;64127;51.488;5.462;2022-10-31T11:37:56;30.73;;;23.53;;
75429;SDS011;64127;51.488;5.462;2022-10-31T11:40:33;33.00;;;23.47;;
75429;SDS011;64127;51.488;5.462;2022-10-31T11:43:12;29.23;;;22.97;;
75429;SDS011;64127;51.488;5.462;2022-10-31T11:45:49;30.57;;;22.90;;
75429;SDS011;64127;51.488;5.462;2022-10-31T11:48:22;30.47;;;23.27;;
75429;SDS011;64127;51.488;5.462;2022-10-31T11:50:56;29.63;;;22.53;;
75429;SDS011;64127;51.488;5.462;2022-10-31T11:53:30;27.87;;;22.47;;
75429;SDS011;64127;51.488;5.462;2022-10-31T11:56:15;27.30;;;22.17;;
75429;SDS011;64127;51.488;5.462;2022-10-31T11:58:58;28.50;;;22.03;;
75429;SDS011;64127;51.488;5.462;2022-10-31T12:01:39;30.13;;;22.10;;
75429;SDS011;64127;51.488;5.462;2022-10-31T12:04:17;27.67;;;22.10;;
75429;SDS011;64127;51.488;5.462;2022-10-31T12:06:49;31.87;;;21.60;;
75429;SDS011;64127;51.488;5.462;2022-10-31T12:09:24;29.10;;;21.97;;
75429;SDS011;64127;51.488;5.462;2022-10-31T12:12:13;26.83;;;22.80;;
75429;SDS011;64127;51.488;5.462;2022-10-31T12:50:38;24.73;;;18.07;;
75429;SDS011;64127;51.488;5.462;2022-10-31T12:55:46;23.30;;;18.10;;
75429;SDS011;64127;51.488;5.462;2022-10-31T12:58:34;27.23;;;18.63;;
75429;SDS011;64127;51.488;5.462;2022-10-31T13:01:19;21.90;;;17.17;;
75429;SDS011;64127;51.488;5.462;2022-10-31T13:07:36;21.57;;;16.90;;
75429;SDS011;64127;51.488;5.462;2022-10-31T13:10:17;21.77;;;16.80;;
75429;SDS011;64127;51.488;5.462;2022-10-31T13:12:54;26.23;;;16.73;;
75429;SDS011;64127;51.488;5.462;2022-10-31T13:15:42;20.73;;;15.90;;
75429;SDS011;64127;51.488;5.462;2022-10-31T13:18:44;25.47;;;16.30;;
75429;SDS011;64127;51.488;5.462;2022-10-31T13:21:26;19.93;;;16.13;;
75429;SDS011;64127;51.488;5.462;2022-10-31T13:24:09;27.33;;;16.57;;
75429;SDS011;64127;51.488;5.462;2022-10-31T13:26:53;23.10;;;14.93;;
75429;SDS011;64127;51.488;5.462;2022-10-31T13:29:31;22.00;;;15.13;;
75429;SDS011;64127;51.488;5.462;2022-10-31T13:32:26;21.93;;;14.80;;
75429;SDS011;64127;51.488;5.462;2022-10-31T13:46:56;20.37;;;13.00;;
75429;SDS011;64127;51.488;5.462;2022-10-31T13:52:05;17.93;;;12.43;;
75429;SDS011;64127;51.488;5.462;2022-10-31T13:54:54;19.10;;;12.37;;
75429;SDS011;64127;51.488;5.462;2022-10-31T13:57:30;20.53;;;12.40;;
75429;SDS011;64127;51.488;5.462;2022-10-31T14:02:52;15.57;;;12.17;;
75429;SDS011;64127;51.488;5.462;2022-10-31T14:05:32;17.93;;;12.13;;
75429;SDS011;64127;51.488;5.462;2022-10-31T14:08:06;16.37;;;12.30;;
75429;SDS011;64127;51.488;5.462;2022-10-31T14:10:54;19.07;;;11.53;;
75429;SDS011;64127;51.488;5.462;2022-10-31T14:13:31;16.70;;;11.73;;
75429;SDS011;64127;51.488;5.462;2022-10-31T14:16:31;15.37;;;11.63;;
75429;SDS011;64127;51.488;5.462;2022-10-31T14:19:18;15.83;;;11.93;;
75429;SDS011;64127;51.488;5.462;2022-10-31T14:21:54;16.83;;;11.83;;
75429;SDS011;64127;51.488;5.462;2022-10-31T14:27:33;15.93;;;11.50;;
75429;SDS011;64127;51.488;5.462;2022-10-31T14:30:07;15.43;;;10.63;;
75429;SDS011;64127;51.488;5.462;2022-10-31T14:32:49;14.40;;;11.17;;
75429;SDS011;64127;51.488;5.462;2022-10-31T14:35:25;16.93;;;10.83;;
75429;SDS011;64127;51.488;5.462;2022-10-31T14:47:45;16.13;;;11.47;;
75429;SDS011;64127;51.488;5.462;2022-10-31T14:50:24;19.30;;;11.13;;
75429;SDS011;64127;51.488;5.462;2022-10-31T14:53:23;16.20;;;11.00;;
75429;SDS011;64127;51.488;5.462;2022-10-31T14:55:58;14.17;;;10.53;;
75429;SDS011;64127;51.488;5.462;2022-10-31T15:04:11;14.40;;;10.63;;
75429;SDS011;64127;51.488;5.462;2022-10-31T15:07:04;17.47;;;10.73;;
75429;SDS011;64127;51.488;5.462;2022-10-31T15:09:55;16.10;;;10.40;;
75429;SDS011;64127;51.488;5.462;2022-10-31T15:12:34;14.70;;;9.57;;
75429;SDS011;64127;51.488;5.462;2022-10-31T15:15:13;16.23;;;10.37;;
75429;SDS011;64127;51.488;5.462;2022-10-31T15:17:57;15.97;;;10.20;;
75429;SDS011;64127;51.488;5.462;2022-10-31T15:20:41;14.50;;;10.20;;
75429;SDS011;64127;51.488;5.462;2022-10-31T15:23:20;17.47;;;10.77;;
75429;SDS011;64127;51.488;5.462;2022-10-31T15:26:04;19.97;;;10.73;;
75429;SDS011;64127;51.488;5.462;2022-10-31T15:28:37;14.50;;;9.73;;
75429;SDS011;64127;51.488;5.462;2022-10-31T15:31:13;14.33;;;9.70;;
75429;SDS011;64127;51.488;5.462;2022-10-31T15:33:49;19.47;;;10.50;;
75429;SDS011;64127;51.488;5.462;2022-10-31T15:36:24;15.47;;;10.13;;
75429;SDS011;64127;51.488;5.462;2022-10-31T15:39:01;13.90;;;10.00;;
75429;SDS011;64127;51.488;5.462;2022-10-31T15:41:35;18.00;;;9.40;;
75429;SDS011;64127;51.488;5.462;2022-10-31T15:44:26;15.60;;;9.90;;
75429;SDS011;64127;51.488;5.462;2022-10-31T15:47:21;15.03;;;9.53;;
75429;SDS011;64127;51.488;5.462;2022-10-31T15:49:56;15.30;;;9.07;;
75429;SDS011;64127;51.488;5.462;2022-10-31T15:52:38;17.87;;;9.73;;
75429;SDS011;64127;51.488;5.462;2022-10-31T15:55:19;13.27;;;9.13;;
75429;SDS011;64127;51.488;5.462;2022-10-31T15:57:57;14.37;;;8.83;;
75429;SDS011;64127;51.488;5.462;2022-10-31T16:00:36;12.67;;;9.23;;
75429;SDS011;64127;51.488;5.462;2022-10-31T16:05:52;14.47;;;8.87;;
75429;SDS011;64127;51.488;5.462;2022-10-31T16:16:51;13.97;;;8.60;;
75429;SDS011;64127;51.488;5.462;2022-10-31T16:19:31;16.37;;;8.50;;
75429;SDS011;64127;51.488;5.462;2022-10-31T16:22:13;14.50;;;8.50;;
75429;SDS011;64127;51.488;5.462;2022-10-31T16:25:14;11.07;;;8.47;;
75429;SDS011;64127;51.488;5.462;2022-10-31T16:28:01;9.80;;;7.57;;
75429;SDS011;64127;51.488;5.462;2022-10-31T16:31:11;10.87;;;8.00;;
75429;SDS011;64127;51.488;5.462;2022-10-31T16:33:45;12.77;;;7.60;;
75429;SDS011;64127;51.488;5.462;2022-10-31T16:39:09;14.37;;;8.00;;
75429;SDS011;64127;51.488;5.462;2022-10-31T16:41:41;16.23;;;8.30;;
75429;SDS011;64127;51.488;5.462;2022-10-31T16:44:18;14.63;;;7.80;;
75429;SDS011;64127;51.488;5.462;2022-10-31T16:47:08;13.70;;;7.50;;
75429;SDS011;64127;51.488;5.462;2022-10-31T16:49:46;13.77;;;7.60;;
75429;SDS011;64127;51.488;5.462;2022-10-31T16:52:21;10.90;;;8.03;;
75429;SDS011;64127;51.488;5.462;2022-10-31T16:54:52;14.77;;;7.70;;
75429;SDS011;64127;51.488;5.462;2022-10-31T16:57:26;10.43;;;7.40;;
75429;SDS011;64127;51.488;5.462;2022-10-31T17:00:02;14.47;;;7.33;;
75429;SDS011;64127;51.488;5.462;2022-10-31T17:02:35;13.87;;;7.43;;
75429;SDS011;64127;51.488;5.462;2022-10-31T17:05:10;8.87;;;6.93;;
75429;SDS011;64127;51.488;5.462;2022-10-31T17:07:45;11.87;;;7.63;;
75429;SDS011;64127;51.488;5.462;2022-10-31T17:10:18;14.00;;;7.70;;
75429;SDS011;64127;51.488;5.462;2022-10-31T17:12:50;12.27;;;7.53;;
75429;SDS011;64127;51.488;5.462;2022-10-31T17:15:24;9.87;;;7.10;;
75429;SDS011;64127;51.488;5.462;2022-10-31T17:17:58;14.87;;;8.13;;
75429;SDS011;64127;51.488;5.462;2022-10-31T17:20:31;10.83;;;7.77;;
75429;SDS011;64127;51.488;5.462;2022-10-31T17:23:03;15.03;;;8.13;;
75429;SDS011;64127;51.488;5.462;2022-10-31T17:25:36;12.57;;;7.10;;
75429;SDS011;64127;51.488;5.462;2022-10-31T17:28:12;15.67;;;8.07;;
75429;SDS011;64127;51.488;5.462;2022-10-31T17:30:45;14.53;;;8.10;;
75429;SDS011;64127;51.488;5.462;2022-10-31T17:33:17;16.33;;;7.87;;
75429;SDS011;64127;51.488;5.462;2022-10-31T17:35:49;11.33;;;7.80;;
75429;SDS011;64127;51.488;5.462;2022-10-31T17:38:22;12.90;;;8.13;;
75429;SDS011;64127;51.488;5.462;2022-10-31T17:40:54;10.60;;;7.97;;